sensor_id;sensor_type;location;lat;lon;timestamp;P1;durP1;ratioP1;P2;durP2;ratioP2
27957;SDS011;15295;42.658;23.374;2022-10-22T00:02:11;46.67;;;23.25;;
27957;SDS011;15295;42.658;23.374;2022-10-22T00:04:40;43.03;;;22.95;;
27957;SDS011;15295;42.658;23.374;2022-10-22T00:07:07;37.88;;;22.65;;
27957;SDS011;15295;42.658;23.374;2022-10-22T00:09:33;42.25;;;23.30;;
27957;SDS011;15295;42.658;23.374;2022-10-22T00:11:58;40.03;;;23.27;;
27957;SDS011;15295;42.658;23.374;2022-10-22T00:14:23;40.72;;;24.10;;
27957;SDS011;15295;42.658;23.374;2022-10-22T00:16:50;40.83;;;24.10;;
27957;SDS011;15295;42.658;23.374;2022-10-22T00:19:17;43.72;;;22.65;;
27957;SDS011;15295;42.658;23.374;2022-10-22T00:22:03;38.13;;;22.45;;
27957;SDS011;15295;42.658;23.374;2022-10-22T00:24:32;41.78;;;22.08;;
27957;SDS011;15295;42.658;23.374;2022-10-22T00:26:59;37.78;;;23.05;;
27957;SDS011;15295;42.658;23.374;2022-10-22T00:29:26;36.40;;;21.85;;
27957;SDS011;15295;42.658;23.374;2022-10-22T00:31:53;37.58;;;22.25;;
27957;SDS011;15295;42.658;23.374;2022-10-22T00:34:24;38.90;;;22.33;;
27957;SDS011;15295;42.658;23.374;2022-10-22T00:36:51;42.25;;;22.02;;
27957;SDS011;15295;42.658;23.374;2022-10-22T00:39:17;38.55;;;22.98;;
27957;SDS011;15295;42.658;23.374;2022-10-22T00:41:45;43.47;;;23.23;;
27957;SDS011;15295;42.658;23.374;2022-10-22T00:47:16;35.90;;;22.48;;
27957;SDS011;15295;42.658;23.374;2022-10-22T00:49:43;34.30;;;22.58;;
27957;SDS011;15295;42.658;23.374;2022-10-22T00:52:15;34.97;;;22.00;;
27957;SDS011;15295;42.658;23.374;2022-10-22T00:54:48;40.80;;;21.45;;
27957;SDS011;15295;42.658;23.374;2022-10-22T00:57:22;32.65;;;21.20;;
27957;SDS011;15295;42.658;23.374;2022-10-22T00:59:47;36.35;;;21.02;;
27957;SDS011;15295;42.658;23.374;2022-10-22T01:02:14;39.03;;;21.50;;
27957;SDS011;15295;42.658;23.374;2022-10-22T01:04:40;33.05;;;20.65;;
27957;SDS011;15295;42.658;23.374;2022-10-22T01:07:08;34.35;;;20.48;;
27957;SDS011;15295;42.658;23.374;2022-10-22T01:09:50;36.10;;;20.25;;
27957;SDS011;15295;42.658;23.374;2022-10-22T01:12:56;40.63;;;21.45;;
27957;SDS011;15295;42.658;23.374;2022-10-22T01:15:58;33.47;;;20.33;;
27957;SDS011;15295;42.658;23.374;2022-10-22T01:30:11;39.53;;;21.02;;
27957;SDS011;15295;42.658;23.374;2022-10-22T01:32:40;35.53;;;19.85;;
27957;SDS011;15295;42.658;23.374;2022-10-22T01:35:11;37.70;;;20.73;;
27957;SDS011;15295;42.658;23.374;2022-10-22T01:37:44;35.88;;;20.42;;
27957;SDS011;15295;42.658;23.374;2022-10-22T01:40:16;37.65;;;22.83;;
27957;SDS011;15295;42.658;23.374;2022-10-22T01:42:53;35.30;;;20.95;;
27957;SDS011;15295;42.658;23.374;2022-10-22T01:45:50;36.70;;;20.60;;
27957;SDS011;15295;42.658;23.374;2022-10-22T02:00:07;32.90;;;19.00;;
27957;SDS011;15295;42.658;23.374;2022-10-22T02:08:22;34.70;;;20.58;;
27957;SDS011;15295;42.658;23.374;2022-10-22T02:10:53;30.98;;;19.08;;
27957;SDS011;15295;42.658;23.374;2022-10-22T02:13:34;40.17;;;19.17;;
27957;SDS011;15295;42.658;23.374;2022-10-22T02:16:03;32.53;;;19.70;;
27957;SDS011;15295;42.658;23.374;2022-10-22T02:21:24;31.55;;;19.95;;
27957;SDS011;15295;42.658;23.374;2022-10-22T02:24:24;32.75;;;20.60;;
27957;SDS011;15295;42.658;23.374;2022-10-22T02:29:42;35.45;;;19.58;;
27957;SDS011;15295;42.658;23.374;2022-10-22T02:32:17;32.15;;;20.08;;
27957;SDS011;15295;42.658;23.374;2022-10-22T02:34:45;31.73;;;20.08;;
27957;SDS011;15295;42.658;23.374;2022-10-22T02:37:13;40.33;;;21.95;;
27957;SDS011;15295;42.658;23.374;2022-10-22T02:39:40;35.03;;;20.67;;
27957;SDS011;15295;42.658;23.374;2022-10-22T02:42:07;30.75;;;20.35;;
27957;SDS011;15295;42.658;23.374;2022-10-22T02:44:33;35.40;;;21.42;;
27957;SDS011;15295;42.658;23.374;2022-10-22T02:46:58;32.78;;;21.08;;
27957;SDS011;15295;42.658;23.374;2022-10-22T02:49:27;33.90;;;20.40;;
27957;SDS011;15295;42.658;23.374;2022-10-22T02:51:52;29.52;;;18.23;;
27957;SDS011;15295;42.658;23.374;2022-10-22T02:54:18;36.05;;;20.35;;
27957;SDS011;15295;42.658;23.374;2022-10-22T02:56:43;36.22;;;20.92;;
27957;SDS011;15295;42.658;23.374;2022-10-22T02:59:10;44.22;;;22.05;;
27957;SDS011;15295;42.658;23.374;2022-10-22T03:01:35;46.03;;;27.23;;
27957;SDS011;15295;42.658;23.374;2022-10-22T03:04:02;36.90;;;22.00;;
27957;SDS011;15295;42.658;23.374;2022-10-22T03:06:29;37.53;;;23.25;;
27957;SDS011;15295;42.658;23.374;2022-10-22T03:08:56;39.78;;;21.95;;
27957;SDS011;15295;42.658;23.374;2022-10-22T03:11:22;38.13;;;23.23;;
27957;SDS011;15295;42.658;23.374;2022-10-22T03:13:48;38.42;;;21.88;;
27957;SDS011;15295;42.658;23.374;2022-10-22T03:16:13;36.45;;;22.13;;
27957;SDS011;15295;42.658;23.374;2022-10-22T03:18:40;46.70;;;26.90;;
27957;SDS011;15295;42.658;23.374;2022-10-22T03:23:51;43.53;;;24.55;;
27957;SDS011;15295;42.658;23.374;2022-10-22T03:26:18;41.80;;;25.83;;
27957;SDS011;15295;42.658;23.374;2022-10-22T03:28:44;42.10;;;24.90;;
27957;SDS011;15295;42.658;23.374;2022-10-22T03:31:13;30.60;;;18.40;;
27957;SDS011;15295;42.658;23.374;2022-10-22T03:33:40;30.85;;;17.80;;
27957;SDS011;15295;42.658;23.374;2022-10-22T03:36:09;26.83;;;16.88;;
27957;SDS011;15295;42.658;23.374;2022-10-22T03:38:36;29.52;;;16.38;;
27957;SDS011;15295;42.658;23.374;2022-10-22T03:41:02;30.05;;;16.35;;
27957;SDS011;15295;42.658;23.374;2022-10-22T03:43:29;29.35;;;18.08;;
27957;SDS011;15295;42.658;23.374;2022-10-22T03:45:54;31.63;;;17.95;;
27957;SDS011;15295;42.658;23.374;2022-10-22T03:48:20;27.33;;;17.35;;
27957;SDS011;15295;42.658;23.374;2022-10-22T03:50:45;32.10;;;18.23;;
27957;SDS011;15295;42.658;23.374;2022-10-22T03:53:13;29.20;;;18.27;;
27957;SDS011;15295;42.658;23.374;2022-10-22T03:55:39;30.15;;;18.63;;
27957;SDS011;15295;42.658;23.374;2022-10-22T03:58:05;32.45;;;18.67;;
27957;SDS011;15295;42.658;23.374;2022-10-22T04:00:36;26.70;;;17.98;;
27957;SDS011;15295;42.658;23.374;2022-10-22T04:03:06;30.00;;;18.98;;
27957;SDS011;15295;42.658;23.374;2022-10-22T04:05:33;30.88;;;18.30;;
27957;SDS011;15295;42.658;23.374;2022-10-22T04:07:59;39.53;;;19.00;;
27957;SDS011;15295;42.658;23.374;2022-10-22T04:10:26;38.40;;;21.52;;
27957;SDS011;15295;42.658;23.374;2022-10-22T04:12:51;33.20;;;20.63;;
27957;SDS011;15295;42.658;23.374;2022-10-22T04:15:16;37.42;;;18.58;;
27957;SDS011;15295;42.658;23.374;2022-10-22T04:17:42;26.88;;;17.33;;
27957;SDS011;15295;42.658;23.374;2022-10-22T04:20:16;30.20;;;17.75;;
27957;SDS011;15295;42.658;23.374;2022-10-22T04:22:42;23.48;;;15.10;;
27957;SDS011;15295;42.658;23.374;2022-10-22T04:25:11;21.45;;;13.48;;
27957;SDS011;15295;42.658;23.374;2022-10-22T04:27:40;22.10;;;14.30;;
27957;SDS011;15295;42.658;23.374;2022-10-22T04:30:07;25.27;;;13.75;;
27957;SDS011;15295;42.658;23.374;2022-10-22T04:32:33;25.90;;;15.35;;
27957;SDS011;15295;42.658;23.374;2022-10-22T04:34:58;23.90;;;15.02;;
27957;SDS011;15295;42.658;23.374;2022-10-22T04:37:23;31.17;;;19.27;;
27957;SDS011;15295;42.658;23.374;2022-10-22T04:39:54;27.95;;;17.48;;
27957;SDS011;15295;42.658;23.374;2022-10-22T04:42:19;31.70;;;19.70;;
27957;SDS011;15295;42.658;23.374;2022-10-22T04:44:45;39.55;;;21.17;;
27957;SDS011;15295;42.658;23.374;2022-10-22T04:47:10;34.13;;;22.33;;
27957;SDS011;15295;42.658;23.374;2022-10-22T04:49:36;52.28;;;28.45;;
27957;SDS011;15295;42.658;23.374;2022-10-22T04:52:02;51.75;;;28.05;;
27957;SDS011;15295;42.658;23.374;2022-10-22T04:54:27;37.10;;;22.10;;
27957;SDS011;15295;42.658;23.374;2022-10-22T04:56:53;42.15;;;22.40;;
27957;SDS011;15295;42.658;23.374;2022-10-22T04:59:18;40.55;;;22.48;;
27957;SDS011;15295;42.658;23.374;2022-10-22T05:01:44;24.10;;;16.90;;
27957;SDS011;15295;42.658;23.374;2022-10-22T05:04:11;31.92;;;18.83;;
27957;SDS011;15295;42.658;23.374;2022-10-22T05:09:07;29.10;;;16.95;;
27957;SDS011;15295;42.658;23.374;2022-10-22T05:11:44;26.13;;;16.40;;
27957;SDS011;15295;42.658;23.374;2022-10-22T05:14:14;26.35;;;16.85;;
27957;SDS011;15295;42.658;23.374;2022-10-22T05:16:42;28.40;;;17.30;;
27957;SDS011;15295;42.658;23.374;2022-10-22T05:19:11;30.98;;;17.23;;
27957;SDS011;15295;42.658;23.374;2022-10-22T05:21:51;31.95;;;16.27;;
27957;SDS011;15295;42.658;23.374;2022-10-22T05:24:19;25.42;;;16.00;;
27957;SDS011;15295;42.658;23.374;2022-10-22T05:26:50;27.95;;;15.85;;
27957;SDS011;15295;42.658;23.374;2022-10-22T05:29:17;26.55;;;16.48;;
27957;SDS011;15295;42.658;23.374;2022-10-22T05:31:43;27.63;;;16.77;;
27957;SDS011;15295;42.658;23.374;2022-10-22T05:34:12;27.95;;;16.10;;
27957;SDS011;15295;42.658;23.374;2022-10-22T05:36:41;26.33;;;15.68;;
27957;SDS011;15295;42.658;23.374;2022-10-22T05:39:07;26.23;;;16.13;;
27957;SDS011;15295;42.658;23.374;2022-10-22T05:41:34;27.55;;;15.63;;
27957;SDS011;15295;42.658;23.374;2022-10-22T05:44:00;31.38;;;18.00;;
27957;SDS011;15295;42.658;23.374;2022-10-22T05:46:29;31.27;;;16.58;;
27957;SDS011;15295;42.658;23.374;2022-10-22T05:48:59;28.02;;;17.20;;
27957;SDS011;15295;42.658;23.374;2022-10-22T05:54:14;28.70;;;16.95;;
27957;SDS011;15295;42.658;23.374;2022-10-22T05:56:42;28.63;;;17.30;;
27957;SDS011;15295;42.658;23.374;2022-10-22T05:59:18;30.52;;;17.52;;
27957;SDS011;15295;42.658;23.374;2022-10-22T06:01:45;28.23;;;16.98;;
27957;SDS011;15295;42.658;23.374;2022-10-22T06:04:12;28.48;;;16.25;;
27957;SDS011;15295;42.658;23.374;2022-10-22T06:11:56;33.35;;;19.58;;
27957;SDS011;15295;42.658;23.374;2022-10-22T06:14:22;37.90;;;20.73;;
27957;SDS011;15295;42.658;23.374;2022-10-22T06:16:48;37.85;;;21.65;;
27957;SDS011;15295;42.658;23.374;2022-10-22T06:19:15;33.08;;;20.33;;
27957;SDS011;15295;42.658;23.374;2022-10-22T06:21:43;45.10;;;22.20;;
27957;SDS011;15295;42.658;23.374;2022-10-22T06:24:12;42.05;;;21.65;;
27957;SDS011;15295;42.658;23.374;2022-10-22T06:26:43;41.28;;;22.50;;
27957;SDS011;15295;42.658;23.374;2022-10-22T06:29:08;35.20;;;20.98;;
27957;SDS011;15295;42.658;23.374;2022-10-22T06:34:56;39.22;;;21.65;;
27957;SDS011;15295;42.658;23.374;2022-10-22T06:37:21;38.78;;;23.02;;
27957;SDS011;15295;42.658;23.374;2022-10-22T06:39:47;42.28;;;23.70;;
27957;SDS011;15295;42.658;23.374;2022-10-22T06:42:15;39.10;;;24.58;;
27957;SDS011;15295;42.658;23.374;2022-10-22T06:44:40;49.97;;;26.20;;
27957;SDS011;15295;42.658;23.374;2022-10-22T06:47:05;36.55;;;23.60;;
27957;SDS011;15295;42.658;23.374;2022-10-22T06:49:31;45.03;;;23.95;;
27957;SDS011;15295;42.658;23.374;2022-10-22T06:51:56;50.45;;;27.10;;
27957;SDS011;15295;42.658;23.374;2022-10-22T06:54:22;47.72;;;25.70;;
27957;SDS011;15295;42.658;23.374;2022-10-22T06:56:47;42.95;;;24.00;;
27957;SDS011;15295;42.658;23.374;2022-10-22T06:59:13;45.72;;;26.50;;
27957;SDS011;15295;42.658;23.374;2022-10-22T07:01:38;50.50;;;27.05;;
27957;SDS011;15295;42.658;23.374;2022-10-22T07:04:04;44.25;;;25.90;;
27957;SDS011;15295;42.658;23.374;2022-10-22T07:06:30;44.00;;;25.73;;
27957;SDS011;15295;42.658;23.374;2022-10-22T07:08:57;45.95;;;25.15;;
27957;SDS011;15295;42.658;23.374;2022-10-22T07:11:27;41.88;;;24.17;;
27957;SDS011;15295;42.658;23.374;2022-10-22T07:13:58;51.40;;;25.60;;
27957;SDS011;15295;42.658;23.374;2022-10-22T07:16:24;41.72;;;26.20;;
27957;SDS011;15295;42.658;23.374;2022-10-22T07:18:50;39.30;;;24.42;;
27957;SDS011;15295;42.658;23.374;2022-10-22T07:21:16;40.92;;;23.65;;
27957;SDS011;15295;42.658;23.374;2022-10-22T07:23:43;35.60;;;21.75;;
27957;SDS011;15295;42.658;23.374;2022-10-22T07:26:10;43.40;;;23.60;;
27957;SDS011;15295;42.658;23.374;2022-10-22T07:28:37;33.17;;;22.77;;
27957;SDS011;15295;42.658;23.374;2022-10-22T07:31:14;39.50;;;22.25;;
27957;SDS011;15295;42.658;23.374;2022-10-22T07:33:41;28.17;;;19.50;;
27957;SDS011;15295;42.658;23.374;2022-10-22T07:36:08;29.67;;;20.35;;
27957;SDS011;15295;42.658;23.374;2022-10-22T07:38:34;32.22;;;20.85;;
27957;SDS011;15295;42.658;23.374;2022-10-22T07:41:00;35.45;;;21.48;;
27957;SDS011;15295;42.658;23.374;2022-10-22T07:43:26;35.10;;;22.33;;
27957;SDS011;15295;42.658;23.374;2022-10-22T07:45:51;30.83;;;21.17;;
27957;SDS011;15295;42.658;23.374;2022-10-22T07:48:19;31.65;;;22.38;;
27957;SDS011;15295;42.658;23.374;2022-10-22T07:50:45;33.83;;;21.75;;
27957;SDS011;15295;42.658;23.374;2022-10-22T07:53:11;34.55;;;21.83;;
27957;SDS011;15295;42.658;23.374;2022-10-22T07:55:36;35.47;;;20.60;;
27957;SDS011;15295;42.658;23.374;2022-10-22T07:58:02;38.83;;;21.60;;
27957;SDS011;15295;42.658;23.374;2022-10-22T08:00:27;33.47;;;21.48;;
27957;SDS011;15295;42.658;23.374;2022-10-22T08:02:54;32.20;;;20.58;;
27957;SDS011;15295;42.658;23.374;2022-10-22T08:05:20;36.05;;;21.55;;
27957;SDS011;15295;42.658;23.374;2022-10-22T08:07:47;31.67;;;20.90;;
27957;SDS011;15295;42.658;23.374;2022-10-22T08:10:12;33.72;;;20.58;;
27957;SDS011;15295;42.658;23.374;2022-10-22T08:12:40;44.90;;;27.77;;
27957;SDS011;15295;42.658;23.374;2022-10-22T08:15:06;35.88;;;22.88;;
27957;SDS011;15295;42.658;23.374;2022-10-22T08:17:32;34.05;;;21.92;;
27957;SDS011;15295;42.658;23.374;2022-10-22T08:19:57;31.48;;;22.08;;
27957;SDS011;15295;42.658;23.374;2022-10-22T08:22:22;42.35;;;26.85;;
27957;SDS011;15295;42.658;23.374;2022-10-22T08:24:48;38.30;;;25.77;;
27957;SDS011;15295;42.658;23.374;2022-10-22T08:27:14;30.10;;;21.75;;
27957;SDS011;15295;42.658;23.374;2022-10-22T08:29:40;38.05;;;24.10;;
27957;SDS011;15295;42.658;23.374;2022-10-22T08:32:05;36.80;;;27.33;;
27957;SDS011;15295;42.658;23.374;2022-10-22T08:34:31;32.45;;;21.50;;
27957;SDS011;15295;42.658;23.374;2022-10-22T08:36:56;36.10;;;22.60;;
27957;SDS011;15295;42.658;23.374;2022-10-22T08:39:21;35.35;;;21.73;;
27957;SDS011;15295;42.658;23.374;2022-10-22T08:41:52;35.17;;;22.95;;
27957;SDS011;15295;42.658;23.374;2022-10-22T08:50:22;30.63;;;20.67;;
27957;SDS011;15295;42.658;23.374;2022-10-22T08:55:21;31.77;;;22.20;;
27957;SDS011;15295;42.658;23.374;2022-10-22T08:57:58;36.00;;;22.88;;
27957;SDS011;15295;42.658;23.374;2022-10-22T09:00:33;32.30;;;21.92;;
27957;SDS011;15295;42.658;23.374;2022-10-22T09:06:26;28.13;;;17.83;;
27957;SDS011;15295;42.658;23.374;2022-10-22T09:08:55;36.67;;;19.45;;
27957;SDS011;15295;42.658;23.374;2022-10-22T09:13:59;29.48;;;19.60;;
27957;SDS011;15295;42.658;23.374;2022-10-22T09:22:07;31.67;;;19.17;;
27957;SDS011;15295;42.658;23.374;2022-10-22T09:24:37;25.30;;;17.95;;
27957;SDS011;15295;42.658;23.374;2022-10-22T09:27:12;25.83;;;18.42;;
27957;SDS011;15295;42.658;23.374;2022-10-22T09:29:44;29.42;;;18.77;;
27957;SDS011;15295;42.658;23.374;2022-10-22T09:32:11;27.27;;;21.83;;
27957;SDS011;15295;42.658;23.374;2022-10-22T09:34:44;34.53;;;23.05;;
27957;SDS011;15295;42.658;23.374;2022-10-22T09:37:11;26.00;;;18.77;;
27957;SDS011;15295;42.658;23.374;2022-10-22T09:39:46;35.22;;;19.00;;
27957;SDS011;15295;42.658;23.374;2022-10-22T09:42:15;31.08;;;18.67;;
27957;SDS011;15295;42.658;23.374;2022-10-22T09:44:48;29.48;;;17.98;;
27957;SDS011;15295;42.658;23.374;2022-10-22T09:52:53;29.10;;;18.50;;
27957;SDS011;15295;42.658;23.374;2022-10-22T09:55:22;33.47;;;19.23;;
27957;SDS011;15295;42.658;23.374;2022-10-22T09:57:57;36.50;;;21.02;;
27957;SDS011;15295;42.658;23.374;2022-10-22T10:00:25;31.75;;;20.08;;
27957;SDS011;15295;42.658;23.374;2022-10-22T10:02:58;27.50;;;17.58;;
27957;SDS011;15295;42.658;23.374;2022-10-22T10:05:25;32.33;;;21.30;;
27957;SDS011;15295;42.658;23.374;2022-10-22T10:08:06;28.52;;;16.50;;
27957;SDS011;15295;42.658;23.374;2022-10-22T10:15:54;26.50;;;19.60;;
27957;SDS011;15295;42.658;23.374;2022-10-22T10:21:22;29.58;;;17.65;;
27957;SDS011;15295;42.658;23.374;2022-10-22T10:23:59;30.80;;;18.50;;
27957;SDS011;15295;42.658;23.374;2022-10-22T10:38:17;27.10;;;17.38;;
27957;SDS011;15295;42.658;23.374;2022-10-22T10:43:55;24.88;;;16.38;;
27957;SDS011;15295;42.658;23.374;2022-10-22T10:51:44;28.70;;;18.25;;
27957;SDS011;15295;42.658;23.374;2022-10-22T10:59:53;27.17;;;17.20;;
27957;SDS011;15295;42.658;23.374;2022-10-22T11:07:49;30.15;;;15.60;;
27957;SDS011;15295;42.658;23.374;2022-10-22T11:13:01;24.23;;;15.43;;
27957;SDS011;15295;42.658;23.374;2022-10-22T11:15:34;30.67;;;15.55;;
27957;SDS011;15295;42.658;23.374;2022-10-22T11:20:51;20.67;;;15.18;;
27957;SDS011;15295;42.658;23.374;2022-10-22T11:23:24;27.83;;;14.65;;
27957;SDS011;15295;42.658;23.374;2022-10-22T11:28:32;25.52;;;13.57;;
27957;SDS011;15295;42.658;23.374;2022-10-22T11:31:07;24.48;;;13.70;;
27957;SDS011;15295;42.658;23.374;2022-10-22T11:34:03;21.70;;;13.52;;
27957;SDS011;15295;42.658;23.374;2022-10-22T11:36:40;25.33;;;12.57;;
27957;SDS011;15295;42.658;23.374;2022-10-22T11:39:26;25.27;;;13.15;;
27957;SDS011;15295;42.658;23.374;2022-10-22T11:41:56;21.50;;;13.35;;
27957;SDS011;15295;42.658;23.374;2022-10-22T11:47:24;17.73;;;12.77;;
27957;SDS011;15295;42.658;23.374;2022-10-22T11:52:40;20.02;;;12.98;;
27957;SDS011;15295;42.658;23.374;2022-10-22T11:58:46;20.92;;;11.98;;
27957;SDS011;15295;42.658;23.374;2022-10-22T12:03:47;24.17;;;12.05;;
27957;SDS011;15295;42.658;23.374;2022-10-22T12:16:22;14.32;;;10.60;;
27957;SDS011;15295;42.658;23.374;2022-10-22T12:18:52;19.67;;;10.98;;
27957;SDS011;15295;42.658;23.374;2022-10-22T12:21:22;20.80;;;12.07;;
27957;SDS011;15295;42.658;23.374;2022-10-22T12:23:48;19.23;;;10.98;;
27957;SDS011;15295;42.658;23.374;2022-10-22T12:29:08;18.25;;;11.40;;
27957;SDS011;15295;42.658;23.374;2022-10-22T12:31:37;20.42;;;10.35;;
27957;SDS011;15295;42.658;23.374;2022-10-22T12:34:03;20.05;;;11.13;;
27957;SDS011;15295;42.658;23.374;2022-10-22T12:36:29;19.05;;;12.23;;
27957;SDS011;15295;42.658;23.374;2022-10-22T12:39:01;20.25;;;11.38;;
27957;SDS011;15295;42.658;23.374;2022-10-22T12:41:34;17.75;;;10.85;;
27957;SDS011;15295;42.658;23.374;2022-10-22T12:44:12;18.88;;;9.85;;
27957;SDS011;15295;42.658;23.374;2022-10-22T12:46:40;16.63;;;10.15;;
27957;SDS011;15295;42.658;23.374;2022-10-22T12:49:22;18.77;;;10.02;;
27957;SDS011;15295;42.658;23.374;2022-10-22T12:52:04;22.55;;;10.45;;
27957;SDS011;15295;42.658;23.374;2022-10-22T12:54:50;16.55;;;9.52;;
27957;SDS011;15295;42.658;23.374;2022-10-22T12:57:17;16.50;;;10.98;;
27957;SDS011;15295;42.658;23.374;2022-10-22T12:59:48;21.20;;;10.75;;
27957;SDS011;15295;42.658;23.374;2022-10-22T13:02:22;17.45;;;10.05;;
27957;SDS011;15295;42.658;23.374;2022-10-22T13:07:46;19.08;;;11.27;;
27957;SDS011;15295;42.658;23.374;2022-10-22T13:10:31;24.58;;;10.85;;
27957;SDS011;15295;42.658;23.374;2022-10-22T13:12:59;17.70;;;10.23;;
27957;SDS011;15295;42.658;23.374;2022-10-22T13:18:03;20.08;;;10.80;;
27957;SDS011;15295;42.658;23.374;2022-10-22T13:23:21;18.50;;;9.60;;
27957;SDS011;15295;42.658;23.374;2022-10-22T13:28:34;16.03;;;9.97;;
27957;SDS011;15295;42.658;23.374;2022-10-22T13:33:50;14.20;;;10.27;;
27957;SDS011;15295;42.658;23.374;2022-10-22T13:36:19;16.30;;;10.38;;
27957;SDS011;15295;42.658;23.374;2022-10-22T13:38:46;16.25;;;9.27;;
27957;SDS011;15295;42.658;23.374;2022-10-22T13:41:30;14.40;;;9.70;;
27957;SDS011;15295;42.658;23.374;2022-10-22T13:43:58;14.15;;;9.25;;
27957;SDS011;15295;42.658;23.374;2022-10-22T13:46:24;16.15;;;9.65;;
27957;SDS011;15295;42.658;23.374;2022-10-22T13:48:51;15.57;;;10.00;;
27957;SDS011;15295;42.658;23.374;2022-10-22T13:51:21;17.42;;;10.25;;
27957;SDS011;15295;42.658;23.374;2022-10-22T13:53:50;15.10;;;9.65;;
27957;SDS011;15295;42.658;23.374;2022-10-22T13:56:18;22.67;;;10.80;;
27957;SDS011;15295;42.658;23.374;2022-10-22T13:58:51;19.75;;;10.50;;
27957;SDS011;15295;42.658;23.374;2022-10-22T14:01:18;18.77;;;10.48;;
27957;SDS011;15295;42.658;23.374;2022-10-22T14:03:44;23.92;;;11.43;;
27957;SDS011;15295;42.658;23.374;2022-10-22T14:06:15;23.42;;;10.27;;
27957;SDS011;15295;42.658;23.374;2022-10-22T14:08:49;17.00;;;10.40;;
27957;SDS011;15295;42.658;23.374;2022-10-22T14:11:22;20.55;;;9.52;;
27957;SDS011;15295;42.658;23.374;2022-10-22T14:13:55;16.48;;;10.50;;
27957;SDS011;15295;42.658;23.374;2022-10-22T14:16:23;17.42;;;10.68;;
27957;SDS011;15295;42.658;23.374;2022-10-22T14:18:51;18.92;;;10.27;;
27957;SDS011;15295;42.658;23.374;2022-10-22T14:26:47;19.35;;;11.52;;
27957;SDS011;15295;42.658;23.374;2022-10-22T15:07:29;33.85;;;15.88;;
27957;SDS011;15295;42.658;23.374;2022-10-22T15:10:01;21.65;;;11.77;;
27957;SDS011;15295;42.658;23.374;2022-10-22T15:12:27;18.73;;;11.65;;
27957;SDS011;15295;42.658;23.374;2022-10-22T15:14:52;26.15;;;13.27;;
27957;SDS011;15295;42.658;23.374;2022-10-22T15:17:18;27.38;;;11.85;;
27957;SDS011;15295;42.658;23.374;2022-10-22T15:19:43;22.67;;;12.50;;
27957;SDS011;15295;42.658;23.374;2022-10-22T15:22:09;21.42;;;13.32;;
27957;SDS011;15295;42.658;23.374;2022-10-22T15:24:35;33.72;;;16.20;;
27957;SDS011;15295;42.658;23.374;2022-10-22T15:27:01;28.17;;;15.32;;
27957;SDS011;15295;42.658;23.374;2022-10-22T15:29:29;21.85;;;11.80;;
27957;SDS011;15295;42.658;23.374;2022-10-22T15:31:59;22.98;;;11.90;;
27957;SDS011;15295;42.658;23.374;2022-10-22T15:34:29;20.40;;;13.60;;
27957;SDS011;15295;42.658;23.374;2022-10-22T15:37:18;26.60;;;16.67;;
27957;SDS011;15295;42.658;23.374;2022-10-22T15:39:51;62.67;;;35.67;;
27957;SDS011;15295;42.658;23.374;2022-10-22T15:42:17;41.58;;;23.30;;
27957;SDS011;15295;42.658;23.374;2022-10-22T15:44:45;38.03;;;18.90;;
27957;SDS011;15295;42.658;23.374;2022-10-22T15:47:10;60.22;;;32.78;;
27957;SDS011;15295;42.658;23.374;2022-10-22T15:49:37;48.00;;;26.80;;
27957;SDS011;15295;42.658;23.374;2022-10-22T15:52:06;50.67;;;27.70;;
27957;SDS011;15295;42.658;23.374;2022-10-22T15:54:33;34.28;;;19.50;;
27957;SDS011;15295;42.658;23.374;2022-10-22T15:56:59;38.03;;;20.95;;
27957;SDS011;15295;42.658;23.374;2022-10-22T15:59:32;38.75;;;20.48;;
27957;SDS011;15295;42.658;23.374;2022-10-22T16:01:58;37.70;;;18.70;;
27957;SDS011;15295;42.658;23.374;2022-10-22T16:04:24;35.67;;;22.77;;
27957;SDS011;15295;42.658;23.374;2022-10-22T16:06:51;36.88;;;22.73;;
27957;SDS011;15295;42.658;23.374;2022-10-22T16:09:18;44.63;;;27.85;;
27957;SDS011;15295;42.658;23.374;2022-10-22T16:14:19;27.90;;;15.23;;
27957;SDS011;15295;42.658;23.374;2022-10-22T16:16:53;32.92;;;16.38;;
27957;SDS011;15295;42.658;23.374;2022-10-22T16:19:20;34.08;;;15.50;;
27957;SDS011;15295;42.658;23.374;2022-10-22T16:21:53;31.85;;;16.92;;
27957;SDS011;15295;42.658;23.374;2022-10-22T16:24:20;34.30;;;18.25;;
27957;SDS011;15295;42.658;23.374;2022-10-22T16:26:46;36.80;;;16.80;;
27957;SDS011;15295;42.658;23.374;2022-10-22T16:29:13;52.53;;;27.52;;
27957;SDS011;15295;42.658;23.374;2022-10-22T16:31:49;38.28;;;19.23;;
27957;SDS011;15295;42.658;23.374;2022-10-22T16:34:15;40.45;;;19.67;;
27957;SDS011;15295;42.658;23.374;2022-10-22T16:36:40;35.88;;;19.05;;
27957;SDS011;15295;42.658;23.374;2022-10-22T16:39:06;38.30;;;21.08;;
27957;SDS011;15295;42.658;23.374;2022-10-22T16:41:33;37.08;;;18.88;;
27957;SDS011;15295;42.658;23.374;2022-10-22T16:44:00;33.08;;;16.98;;
27957;SDS011;15295;42.658;23.374;2022-10-22T16:46:29;40.40;;;19.83;;
27957;SDS011;15295;42.658;23.374;2022-10-22T16:48:55;33.80;;;17.63;;
27957;SDS011;15295;42.658;23.374;2022-10-22T16:51:22;35.63;;;16.20;;
27957;SDS011;15295;42.658;23.374;2022-10-22T16:53:50;30.15;;;16.63;;
27957;SDS011;15295;42.658;23.374;2022-10-22T16:56:18;38.88;;;17.13;;
27957;SDS011;15295;42.658;23.374;2022-10-22T16:58:45;36.15;;;18.83;;
27957;SDS011;15295;42.658;23.374;2022-10-22T17:01:12;29.88;;;16.67;;
27957;SDS011;15295;42.658;23.374;2022-10-22T17:03:38;37.05;;;18.13;;
27957;SDS011;15295;42.658;23.374;2022-10-22T17:06:04;44.40;;;19.63;;
27957;SDS011;15295;42.658;23.374;2022-10-22T17:08:32;35.92;;;17.95;;
27957;SDS011;15295;42.658;23.374;2022-10-22T17:11:09;34.60;;;18.35;;
27957;SDS011;15295;42.658;23.374;2022-10-22T17:13:47;36.05;;;17.17;;
27957;SDS011;15295;42.658;23.374;2022-10-22T17:16:17;40.08;;;20.45;;
27957;SDS011;15295;42.658;23.374;2022-10-22T17:18:46;34.67;;;18.17;;
27957;SDS011;15295;42.658;23.374;2022-10-22T17:21:13;34.75;;;17.58;;
27957;SDS011;15295;42.658;23.374;2022-10-22T17:23:39;30.75;;;17.50;;
27957;SDS011;15295;42.658;23.374;2022-10-22T17:26:07;30.45;;;18.00;;
27957;SDS011;15295;42.658;23.374;2022-10-22T17:28:36;36.20;;;18.42;;
27957;SDS011;15295;42.658;23.374;2022-10-22T17:33:28;41.60;;;23.02;;
27957;SDS011;15295;42.658;23.374;2022-10-22T17:35:55;39.05;;;24.17;;
27957;SDS011;15295;42.658;23.374;2022-10-22T17:38:21;29.27;;;17.23;;
27957;SDS011;15295;42.658;23.374;2022-10-22T17:40:46;30.48;;;16.80;;
27957;SDS011;15295;42.658;23.374;2022-10-22T17:43:12;30.73;;;17.33;;
27957;SDS011;15295;42.658;23.374;2022-10-22T17:45:37;36.92;;;19.40;;
27957;SDS011;15295;42.658;23.374;2022-10-22T17:48:02;42.28;;;19.27;;
27957;SDS011;15295;42.658;23.374;2022-10-22T17:50:28;34.35;;;17.63;;
27957;SDS011;15295;42.658;23.374;2022-10-22T17:52:53;29.35;;;17.38;;
27957;SDS011;15295;42.658;23.374;2022-10-22T17:55:19;33.03;;;18.27;;